Time;durP1;ratioP1;P1;durP2;ratioP2;P2;SDS_P1;SDS_P2;PMS_P1;PMS_P2;Temp;Humidity;BMP_temperature;BMP_pressure;BME280_temperature;BME280_humidity;BME280_pressure;Samples;Min_cycle;Max_cycle;Signal;HPM_P1;HPM_P2
2022/06/21 00:00:57;;;;;;;0.93;0.93;;;16.70;56.90;16.10;98271.00;;;;5094276;28;20241;-74
2022/06/21 00:03:24;;;;;;;0.40;0.40;;;;;16.00;98273.00;;;;5094234;28;20279;-73
2022/06/21 00:05:54;;;;;;;0.50;0.50;;;;;15.80;98284.00;;;;5094342;28;20194;-74
2022/06/21 00:08:24;;;;;;;0.40;0.40;;;;;15.80;98267.00;;;;5094150;28;20195;-74
2022/06/21 00:10:55;;;;;;;0.60;0.60;;;;;15.90;98278.00;;;;5094192;28;20245;-74
2022/06/21 00:13:26;;;;;;;0.40;0.40;;;;;16.00;98281.00;;;;5094078;28;20210;-74
2022/06/21 00:15:56;;;;;;;0.43;0.43;;;;;15.70;98275.00;;;;5094119;28;20206;-73
2022/06/21 00:18:25;;;;;;;0.40;0.40;;;;;15.70;98283.00;;;;5094026;28;20187;-74
2022/06/21 00:20:53;;;;;;;0.40;0.40;;;;;15.60;98272.00;;;;5093916;28;20230;-73
2022/06/21 00:23:22;;;;;;;0.83;0.73;;;;;15.30;98281.00;;;;5093941;28;20230;-73
2022/06/21 00:25:50;;;;;;;0.60;0.60;;;;;15.20;98274.00;;;;5093867;28;20638;-73
2022/06/21 00:28:21;;;;;;;0.70;0.70;;;;;15.10;98266.00;;;;5093304;28;20596;-73
2022/06/21 00:30:50;;;;;;;0.70;0.70;;;;;15.20;98269.00;;;;5093878;28;20211;-73
2022/06/21 00:33:19;;;;;;;0.90;0.90;;;;;15.30;98268.00;;;;5093897;28;20210;-73
2022/06/21 00:35:48;;;;;;;0.57;0.57;;;;;15.20;98264.00;;;;5093760;28;20191;-74
2022/06/21 00:38:16;;;;;;;0.70;0.70;;;;;15.20;98266.00;;;;5093794;28;20254;-73
2022/06/21 00:40:45;;;;;;;0.40;0.40;;;;;15.30;98270.00;;;;5093620;28;20226;-73
2022/06/21 00:43:18;;;;;;;0.60;0.60;;;;;15.20;98280.00;;;;5093659;28;20687;-73
2022/06/21 00:45:46;;;;;;;0.50;0.50;;;;;15.20;98274.00;;;;5093831;28;20634;-74
2022/06/21 00:48:19;;;;;;;0.50;0.50;;;;;15.10;98272.00;;;;5093734;28;20662;-74
2022/06/21 00:50:48;;;;;;;0.50;0.50;;;;;15.10;98273.00;;;;5096412;28;20211;-73
2022/06/21 00:53:20;;;;;;;1.17;1.17;;;;;15.10;98268.00;;;;5097307;28;20286;-74
2022/06/21 00:55:52;;;;;;;0.50;0.50;;;;;15.20;98265.00;;;;5097472;28;20533;-74
2022/06/21 00:58:21;;;;;;;0.57;0.57;;;;;15.10;98265.00;;;;5097231;28;20234;-73
2022/06/21 01:01:01;;;;;;;0.53;0.53;;;;;15.00;98258.00;;;;5096977;28;20223;-74
2022/06/21 01:03:32;;;;;;;0.50;0.50;;;;;14.90;98255.00;;;;5097327;28;20183;-73
2022/06/21 01:06:04;;;;;;;0.40;0.40;;;;;15.00;98248.00;;;;5097055;28;20202;-73
2022/06/21 01:08:36;;;;;;;0.57;0.57;;;;;14.80;98249.00;;;;5097316;28;20625;-74
2022/06/21 01:11:10;;;;;;;0.60;0.60;;;;;14.70;98242.00;;;;5097038;28;20195;-73
2022/06/21 01:13:42;;;;;;;0.50;0.50;;;;;14.60;98239.00;;;;5096905;28;20222;-74
2022/06/21 01:16:09;;;;;;;0.40;0.40;;;;;14.50;98229.00;;;;5096762;28;20526;-74
2022/06/21 01:18:41;;;;;;;0.47;0.47;;;;;14.40;98245.00;;;;5096841;28;20195;-73
2022/06/21 01:21:09;;;;;;;0.50;0.50;;;;;14.60;98248.00;;;;5096623;28;20230;-73
2022/06/21 01:24:08;;;;;;;0.90;0.90;;;;;14.60;98234.00;;;;5096941;28;20269;-73
2022/06/21 01:26:48;;;;;;;0.43;0.43;;;;;14.60;98236.00;;;;5079841;28;20246;-73
2022/06/21 01:29:18;;;;;;;0.67;0.67;;;;;14.50;98230.00;;;;5096745;28;20252;-73
2022/06/21 01:31:46;;;;;;;0.90;0.90;;;;;14.50;98242.00;;;;5096591;28;20225;-73
2022/06/21 01:34:15;;;;;;;0.50;0.50;;;;;14.50;98234.00;;;;5078662;28;20694;-73
2022/06/21 01:36:44;;;;;;;0.50;0.50;;;;;14.50;98221.00;;;;5096593;28;20190;-74
2022/06/21 01:39:18;;;;;;;0.50;0.50;;;;;14.40;98216.00;;;;5096628;28;20191;-74
2022/06/21 01:41:51;;;;;;;0.50;0.50;;;;;14.20;98202.00;;;;5096529;28;20219;-74
2022/06/21 01:44:23;;;;;;;0.30;0.30;;;;;14.30;98198.00;;;;5096442;28;20526;-73
2022/06/21 01:46:50;;;;;;;1.00;1.00;;;;;14.30;98198.00;;;;5096406;28;20233;-74
2022/06/21 01:49:21;;;;;;;0.53;0.53;;;;;14.20;98191.00;;;;5096365;28;20206;-74
2022/06/21 01:51:53;;;;;;;0.50;0.50;;;;;14.30;98190.00;;;;5096774;28;20194;-74
2022/06/21 01:54:23;;;;;;;0.50;0.50;;;;;14.20;98189.00;;;;5096290;28;20226;-74
2022/06/21 01:56:52;;;;;;;0.60;0.60;;;;;14.20;98180.00;;;;5096270;28;20198;-74
2022/06/21 01:59:26;;;;;;;0.70;0.70;;;;;14.30;98181.00;;;;5096327;28;20578;-73
2022/06/21 02:01:58;;;;;;;0.57;0.57;;;;;14.20;98173.00;;;;5077274;28;20583;-74
2022/06/21 02:04:28;;;;;;;0.50;0.50;;;;;14.00;98177.00;;;;5096250;28;20641;-73
2022/06/21 02:06:59;;;;;;;0.50;0.50;;;;;14.10;98176.00;;;;5096070;28;20274;-74
2022/06/21 02:09:34;;;;;;;0.50;0.50;;;;;14.20;98191.00;;;;5096188;28;20203;-74
2022/06/21 02:12:05;;;;;;;1.07;1.07;;;;;14.20;98189.00;;;;5096022;28;20206;-74
2022/06/21 02:14:37;;;;;;;0.50;0.50;;;;;14.00;98179.00;;;;5095917;28;20225;-74
2022/06/21 02:17:15;;;;;;;0.50;0.50;;;;;14.10;98186.00;;;;5095983;28;20282;-74
2022/06/21 02:19:46;;;;;;;0.60;0.60;;;;;14.00;98188.00;;;;5095818;28;20194;-74
2022/06/21 02:22:17;;;;;;;0.50;0.50;;;;;14.10;98190.00;;;;5095879;28;20531;-75
2022/06/21 02:24:44;;;;;;;0.53;0.53;;;;;14.00;98180.00;;;;5095861;28;20213;-74
2022/06/21 02:27:15;;;;;;;0.50;0.50;;;;;14.00;98170.00;;;;5095700;28;20233;-73
2022/06/21 02:29:46;;;;;;;0.70;0.70;;;;;14.00;98162.00;;;;5095799;28;20199;-74
2022/06/21 02:32:23;;;;;;;0.70;0.70;;;;;14.00;98148.00;;;;5077886;28;20234;-74
2022/06/21 02:34:53;;;;;;;0.40;0.40;;;;;13.70;98142.00;;;;5095660;28;20259;-74
2022/06/21 02:37:20;;;;;;;0.60;0.60;;;;;13.60;98145.00;;;;5095624;28;20281;-74
2022/06/21 02:39:47;;;;;;;0.53;0.53;;;;;13.60;98148.00;;;;5095489;28;20223;-74
2022/06/21 02:42:20;;;;;;;0.73;0.73;;;;;13.60;98150.00;;;;5095414;28;20230;-74
2022/06/21 02:44:51;;;;;;;0.50;0.50;;;;;13.60;98143.00;;;;5095626;28;20691;-74
2022/06/21 02:47:23;;;;;;;0.53;0.53;;;;;13.60;98151.00;;;;5095440;28;20271;-73
2022/06/21 02:49:56;;;;;;;0.50;0.50;;;;;13.90;98143.00;;;;5095611;28;20210;-75
2022/06/21 02:52:29;;;;;;;0.40;0.40;;;;;14.00;98149.00;;;;5077572;28;20717;-74
2022/06/21 02:55:00;;;;;;;0.57;0.57;;;;;14.00;98156.00;;;;5095349;28;20190;-75
2022/06/21 02:57:32;;;;;;;0.50;0.50;;;;;13.90;98157.00;;;;5095376;28;20265;-74
2022/06/21 03:00:01;;;;;;;0.60;0.60;;;;;14.00;98169.00;;;;5095268;28;20256;-74
2022/06/21 03:02:32;;;;;;;0.50;0.50;;;;;14.00;98169.00;;;;5095238;28;20303;-73
2022/06/21 03:05:02;;;;;;;0.50;0.50;;;;;14.00;98165.00;;;;5095674;28;20556;-74
2022/06/21 03:07:33;;;;;;;0.50;0.50;;;;;14.10;98173.00;;;;5095098;28;20233;-74
2022/06/21 03:10:00;;;;;;;2.53;0.83;;;;;14.10;98163.00;;;;5095401;28;20228;-74
2022/06/21 03:12:30;;;;;;;0.73;0.70;;;;;14.10;98145.00;;;;5094957;28;20252;-74
2022/06/21 03:15:01;;;;;;;0.50;0.50;;;;;14.30;98135.00;;;;5095013;28;20220;-74
2022/06/21 03:17:37;;;;;;;0.40;0.40;;;;;14.10;98132.00;;;;5094966;28;20208;-74
2022/06/21 03:20:06;;;;;;;0.70;0.70;;;;;14.00;98132.00;;;;5094907;28;20302;-74
2022/06/21 03:22:34;;;;;;;0.60;0.60;;;;;14.00;98130.00;;;;5094812;28;20232;-74
2022/06/21 03:25:05;;;;;;;0.50;0.50;;;;;13.90;98136.00;;;;5094812;28;20710;-74
2022/06/21 03:27:36;;;;;;;0.63;0.63;;;;;14.00;98142.00;;;;5094861;28;20247;-73
2022/06/21 03:30:04;;;;;;;1.60;1.23;;;;;14.10;98141.00;;;;5094870;28;20206;-74
2022/06/21 03:32:36;;;;;;;0.60;0.60;;;;;14.10;98133.00;;;;5094721;28;20251;-74
2022/06/21 03:35:05;;;;;;;0.80;0.80;;;;;14.20;98131.00;;;;5094694;28;20650;-74
2022/06/21 03:37:34;;;;;;;0.70;0.70;;;;;14.20;98125.00;;;;5094645;28;20187;-74
2022/06/21 03:42:52;;;;;;;0.60;0.60;;;;;14.20;98117.00;;;;5094742;28;20229;-73
2022/06/21 03:45:25;;;;;;;0.83;0.83;;;;;14.40;98131.00;;;;5094507;28;20191;-74
2022/06/21 03:48:00;;;;;;;0.60;0.60;;;;;14.30;98134.00;;;;5094554;28;20198;-75
2022/06/21 03:50:31;;;;;;;0.50;0.50;;;;;14.40;98132.00;;;;5094486;28;20201;-74
2022/06/21 03:53:07;;;;;;;0.60;0.60;;;;;14.30;98136.00;;;;5094337;28;20237;-74
2022/06/21 03:55:42;;;;;;;0.50;0.50;;;;;14.40;98144.00;;;;5094551;28;20194;-74
2022/06/21 03:58:22;;;;;;;3.93;1.63;;;;;14.60;98145.00;;;;5094395;28;20237;-73
2022/06/21 04:00:54;;;;;;;0.60;0.60;;;;;14.60;98133.00;;;;5094195;28;20309;-74
2022/06/21 04:03:25;;;;;;;0.50;0.50;;;;;14.50;98118.00;;;;5094258;28;20205;-73
2022/06/21 04:05:59;;;;;;;0.50;0.50;;;;;14.50;98117.00;;;;5094307;28;20246;-73
2022/06/21 04:08:32;;;;;;;0.60;0.60;;;;;14.50;98117.00;;;;5094322;28;20190;-73
2022/06/21 04:11:06;;;;;;;0.70;0.70;;;;;14.50;98104.00;;;;5094339;28;20206;-73
2022/06/21 04:13:43;;;;;;;0.50;0.50;;;;;14.60;98093.00;;;;5094022;28;20290;-73
2022/06/21 04:16:17;;;;;;;9.03;1.03;;;;;14.60;98098.00;;;;5094084;28;20633;-73
2022/06/21 04:18:48;;;;;;;0.60;0.60;;;;;14.50;98101.00;;;;5094177;28;20549;-73
2022/06/21 04:21:24;;;;;;;0.80;0.80;;;;;14.30;98103.00;;;;5093847;28;20226;-74
2022/06/21 04:23:57;;;;;;;0.50;0.50;;;;;14.30;98121.00;;;;5093579;28;20528;-73
2022/06/21 04:26:31;;;;;;;0.80;0.80;;;;;14.60;98118.00;;;;5093839;28;20267;-73
2022/06/21 04:29:05;;;;;;;0.57;0.57;;;;;14.80;98115.00;;;;5093913;28;20259;-73
2022/06/21 04:31:41;;;;;;;0.60;0.60;;;;;14.90;98117.00;;;;5093909;28;20199;-73
2022/06/21 04:34:15;;;;;;;0.50;0.50;;;;;15.00;98117.00;;;;5093872;28;20190;-74
2022/06/21 04:36:48;;;;;;;0.70;0.70;;;;;15.10;98130.00;;;;5093774;28;20202;-74
2022/06/21 04:39:20;;;;;;;0.63;0.63;;;;;15.20;98115.00;;;;5093657;28;20233;-73
2022/06/21 04:41:53;;;;;;;0.60;0.60;;;;;15.30;98102.00;;;;5093896;28;20279;-72
2022/06/21 04:44:26;;;;;;;1.70;1.30;;;;;15.50;98101.00;;;;5093710;28;20251;-73
2022/06/21 04:47:00;;;;;;;0.50;0.50;;;;;15.40;98101.00;;;;5093550;28;20666;-73
2022/06/21 04:49:32;;;;;;;1.30;0.90;;;;;15.30;98102.00;;;;5075986;28;20521;-73
2022/06/21 04:52:04;;;;;;;0.80;0.80;;;;;15.50;98100.00;;;;5093702;28;20216;-73
2022/06/21 04:54:33;;;;;;;0.67;0.63;;;;;15.60;98100.00;;;;5093634;28;20210;-73
2022/06/21 04:57:07;;;;;;;0.57;0.57;;;;;15.80;98105.00;;;;5093644;28;20187;-73
2022/06/21 04:59:40;;;;;;;0.87;0.87;;;;;15.80;98098.00;;;;5093388;28;20229;-72
2022/06/21 05:02:15;;;;;;;0.60;0.60;;;;;15.90;98095.00;;;;5093596;28;20615;-73
2022/06/21 05:04:43;;;;;;;0.63;0.63;;;;;15.90;98093.00;;;;5093729;28;20213;-73
2022/06/21 05:07:15;;;;;;;0.50;0.50;;;;;16.00;98100.00;;;;5093522;28;20605;-72
2022/06/21 05:09:42;;;;;;;0.60;0.60;;;;;16.10;98093.00;;;;5093560;28;20555;-73
2022/06/21 05:12:15;;;;;;;0.97;0.90;;;;;16.10;98112.00;;;;5093215;28;20206;-73
2022/06/21 05:14:47;;;;;;;0.60;0.60;;;;;16.10;98105.00;;;;5093357;28;20209;-73
2022/06/21 05:17:18;;;;;;;1.10;0.67;;;;;16.20;98108.00;;;;5093256;28;20626;-74
2022/06/21 05:19:49;;;;;;;1.80;1.07;;;;;16.30;98112.00;;;;5093127;28;20235;-73
2022/06/21 05:22:24;;;;;;;0.60;0.60;;;;;16.50;98107.00;;;;5093156;28;20333;-74
2022/06/21 05:24:51;;;;;;;0.50;0.50;;;;;16.60;98104.00;;;;5093249;28;20195;-73
2022/06/21 05:27:25;;;;;;;1.57;1.57;;;;;16.60;98100.00;;;;5092997;28;20244;-73
2022/06/21 05:30:00;;;;;;;0.50;0.50;;;;;16.60;98101.00;;;;5095353;28;20404;-73
2022/06/21 05:32:33;;;;;;;0.50;0.50;;;;;16.70;98099.00;;;;5099619;28;20287;-73
2022/06/21 05:35:06;;;;;;;0.60;0.60;;;;;16.80;98093.00;;;;5096550;28;20528;-74
2022/06/21 05:37:36;;;;;;;0.80;0.80;;;;;16.90;98094.00;;;;5096661;28;20203;-73
2022/06/21 05:40:15;;;;;;;0.80;0.80;;;;;17.10;98096.00;;;;5096444;28;20222;-72
2022/06/21 05:42:42;;;;;;;0.60;0.60;;;;;17.20;98095.00;;;;5096558;28;20210;-72
2022/06/21 05:45:14;;;;;;;0.90;0.90;;;;;17.30;98099.00;;;;5096585;28;20267;-73
2022/06/21 05:47:43;;;;;;;1.17;1.07;;;;;17.50;98099.00;;;;5096402;28;20191;-73
2022/06/21 05:50:18;;;;;;;0.50;0.50;;;18.00;48.20;17.70;98093.00;;;;5096333;28;20218;-73
2022/06/21 05:52:50;;;;;;;0.40;0.40;;;17.90;48.90;17.70;98099.00;;;;5096334;28;20290;-73
2022/06/21 05:55:23;;;;;;;39.43;1.10;;;18.10;48.10;17.90;98096.00;;;;5078441;28;20210;-75
2022/06/21 05:57:56;;;;;;;0.67;0.67;;;18.30;47.50;18.00;98107.00;;;;5096303;28;20191;-74
2022/06/21 06:00:33;;;;;;;0.57;0.57;;;18.40;46.10;17.90;98116.00;;;;5096104;28;20645;-73
2022/06/21 06:03:09;;;;;;;0.70;0.70;;;18.40;46.60;18.00;98123.00;;;;5078685;28;20226;-73
2022/06/21 06:05:36;;;;;;;0.60;0.60;;;18.40;45.50;18.10;98116.00;;;;5096312;28;20275;-70
2022/06/21 06:08:10;;;;;;;0.60;0.60;;;18.50;44.60;18.20;98117.00;;;;5096182;28;20195;-71
2022/06/21 06:10:42;;;;;;;0.47;0.47;;;18.50;45.60;18.20;98116.00;;;;5096097;28;20201;-70
2022/06/21 06:13:18;;;;;;;0.40;0.40;;;18.60;44.20;18.10;98125.00;;;;5095940;28;20364;-69
2022/06/21 06:15:51;;;;;;;0.50;0.50;;;18.60;44.90;18.20;98125.00;;;;5095977;28;20198;-75
2022/06/21 06:18:22;;;;;;;0.50;0.50;;;18.60;44.40;18.20;98122.00;;;;5095855;28;20214;-73
2022/06/21 06:20:56;;;;;;;0.67;0.67;;;18.60;44.90;18.20;98124.00;;;;5095815;28;20210;-74
2022/06/21 06:23:37;;;;;;;0.80;0.80;;;18.60;46.00;18.30;98123.00;;;;5095901;28;20577;-73
2022/06/21 06:26:15;;;;;;;0.50;0.50;;;18.70;45.30;18.20;98118.00;;;;5095859;28;20522;-73
2022/06/21 06:28:50;;;;;;;0.50;0.50;;;18.60;45.10;18.30;98110.00;;;;5078224;28;20232;-72
2022/06/21 06:31:26;;;;;;;0.50;0.50;;;18.70;46.30;18.30;98127.00;;;;5095726;28;20304;-71
2022/06/21 06:34:00;;;;;;;0.43;0.43;;;18.70;45.00;18.20;98132.00;;;;5095741;28;20713;-71
2022/06/21 06:36:36;;;;;;;0.47;0.47;;;18.70;44.80;18.40;98127.00;;;;5095660;28;20175;-74
2022/06/21 06:39:17;;;;;;;0.50;0.50;;;18.80;45.00;18.40;98130.00;;;;5095646;28;20245;-75
2022/06/21 06:41:51;;;;;;;0.80;0.80;;;18.80;45.90;18.40;98130.00;;;;5095684;28;20671;-72
2022/06/21 06:44:21;;;;;;;0.50;0.50;;;18.90;44.40;18.40;98127.00;;;;5095617;28;20226;-74
2022/06/21 06:46:51;;;;;;;0.57;0.57;;;18.90;45.00;18.50;98119.00;;;;5095140;28;20195;-74
2022/06/21 06:49:26;;;;;;;0.50;0.50;;;18.90;44.30;18.60;98113.00;;;;5095559;28;20195;-74
2022/06/21 06:52:01;;;;;;;0.40;0.40;;;19.00;44.20;18.60;98102.00;;;;5095455;28;20252;-73
2022/06/21 06:54:40;;;;;;;0.40;0.40;;;19.00;44.40;18.70;98107.00;;;;5095567;28;20257;-75
2022/06/21 06:57:27;;;;;;;0.80;0.80;;;19.10;44.00;18.70;98102.00;;;;5095351;28;20218;-75
2022/06/21 06:59:56;;;;;;;0.73;0.73;;;19.20;43.40;18.80;98110.00;;;;5095283;28;20186;-73
2022/06/21 07:02:31;;;;;;;0.30;0.30;;;19.20;42.30;18.90;98107.00;;;;5095283;28;20222;-74
2022/06/21 07:05:24;;;;;;;0.40;0.40;;;19.30;42.10;19.00;98103.00;;;;5095231;28;20648;-74
2022/06/21 07:07:59;;;;;;;0.50;0.50;;;19.40;42.00;19.20;98108.00;;;;5095091;28;20218;-73
2022/06/21 07:10:28;;;;;;;0.63;0.63;;;19.50;42.10;19.30;98121.00;;;;5095166;28;20721;-74
2022/06/21 07:12:57;;;;;;;2.90;0.93;;;19.70;42.20;19.40;98119.00;;;;5095273;28;20187;-74
2022/06/21 07:15:36;;;;;;;2.27;0.77;;;19.80;41.90;19.70;98133.00;;;;5095017;28;20202;-74
2022/06/21 07:18:11;;;;;;;0.40;0.40;;;19.90;39.70;19.70;98120.00;;;;5095108;28;20206;-75
2022/06/21 07:20:42;;;;;;;0.57;0.57;;;20.10;38.90;19.80;98130.00;;;;5095015;28;20205;-74
2022/06/21 07:23:15;;;;;;;0.47;0.47;;;20.20;40.20;20.00;98137.00;;;;5095091;28;20313;-74
2022/06/21 07:25:45;;;;;;;0.40;0.40;;;;;20.20;98148.00;;;;5095084;28;20202;-74
2022/06/21 07:28:21;;;;;;;0.50;0.50;;;20.50;38.40;20.30;98155.00;;;;5077088;28;20220;-74
2022/06/21 07:30:52;;;;;;;0.83;0.83;;;20.60;38.80;20.50;98122.00;;;;5094903;28;20191;-75
2022/06/21 07:33:28;;;;;;;0.50;0.50;;;20.70;39.00;20.60;98145.00;;;;5094935;28;20213;-74
2022/06/21 07:36:02;;;;;;;0.33;0.33;;;20.90;38.40;20.60;98148.00;;;;5077215;28;20522;-75
2022/06/21 07:38:34;;;;;;;0.80;0.80;;;;;20.70;98143.00;;;;5094766;28;20201;-72
2022/06/21 07:41:07;;;;;;;0.47;0.47;;;;;20.70;98137.00;;;;5094569;28;20221;-73
2022/06/21 07:43:40;;;;;;;0.60;0.60;;;;;20.70;98137.00;;;;5094778;28;20565;-72
2022/06/21 07:46:08;;;;;;;0.60;0.60;;;;;20.70;98121.00;;;;5094597;28;20281;-75
2022/06/21 07:48:44;;;;;;;0.50;0.50;;;;;20.80;98117.00;;;;5094484;28;20294;-72
2022/06/21 07:51:15;;;;;;;0.40;0.40;;;;;21.00;98112.00;;;;5094460;28;20206;-76
2022/06/21 07:53:47;;;;;;;0.40;0.40;;;;;20.90;98097.00;;;;5094467;28;20262;-75
2022/06/21 07:56:16;;;;;;;0.47;0.47;;;;;21.00;98083.00;;;;5094488;28;20205;-74
2022/06/21 07:58:50;;;;;;;0.60;0.60;;;;;21.20;98074.00;;;;5093486;28;20203;-72
2022/06/21 08:07:08;;;;;;;1.00;1.00;;;;;21.40;98056.00;;;;5094065;28;20218;-73
2022/06/21 08:09:40;;;;;;;0.40;0.40;;;;;21.40;98066.00;;;;5094278;28;20195;-72
2022/06/21 08:12:11;;;;;;;0.53;0.53;;;;;21.50;98056.00;;;;5094175;28;20195;-73
2022/06/21 08:14:38;;;;;;;1.23;0.87;;;;;21.60;98056.00;;;;5094074;28;20224;-73
2022/06/21 08:17:14;;;;;;;0.50;0.50;;;;;21.90;98042.00;;;;5094038;28;20217;-74
2022/06/21 08:19:49;;;;;;;0.60;0.60;;;;;22.00;98037.00;;;;5093988;28;20311;-74
2022/06/21 08:22:21;;;;;;;0.40;0.40;;;;;22.30;98052.00;;;;5094144;28;20213;-75
2022/06/21 08:24:54;;;;;;;0.70;0.70;;;;;22.30;98058.00;;;;5093979;28;20228;-74
2022/06/21 08:27:34;;;;;;;0.90;0.90;;;;;22.50;98077.00;;;;5093923;28;20551;-74
2022/06/21 08:30:08;;;;;;;1.48;1.25;;;;;22.40;98085.00;;;;5094074;28;20202;-73
2022/06/21 08:32:40;;;;;;;0.80;0.80;;;;;22.60;98087.00;;;;5075981;28;20589;-72
2022/06/21 08:35:18;;;;;;;0.60;0.60;;;;;22.80;98077.00;;;;5093773;28;20622;-71
2022/06/21 08:37:51;;;;;;;0.52;0.52;;;;;22.90;98074.00;;;;5094116;28;20277;-72
2022/06/21 08:40:40;;;;;;;0.50;0.50;;;;;22.80;98076.00;;;;5093663;28;20294;-71
2022/06/21 08:43:45;;;;;;;0.77;0.70;;;;;22.90;98093.00;;;;5093508;28;20684;-73
2022/06/21 08:46:54;;;;;;;0.50;0.50;;;;;23.00;98082.00;;;;5093502;28;20223;-73
2022/06/21 08:50:01;;;;;;;0.50;0.50;;;;;23.10;98098.00;;;;5093716;28;20198;-75
2022/06/21 08:52:55;;;;;;;0.40;0.40;;;;;23.10;98084.00;;;;5093527;28;20222;-75
2022/06/21 08:55:35;;;;;;;0.80;0.80;;;;;23.30;98093.00;;;;5093888;28;20198;-75
2022/06/21 08:58:13;;;;;;;0.93;0.93;;;;;23.30;98076.00;;;;5093701;28;20564;-72
2022/06/21 09:00:49;;;;;;;0.50;0.50;;;;;23.30;98066.00;;;;5075775;28;20698;-73
2022/06/21 09:03:32;;;;;;;4.03;0.60;;;;;23.40;98050.00;;;;5075756;28;20561;-76
2022/06/21 09:06:15;;;;;;;0.50;0.50;;;;;23.50;98049.00;;;;5093441;28;20233;-73
2022/06/21 09:09:04;;;;;;;1.73;0.60;;;;;23.40;98050.00;;;;5093518;28;20217;-73
2022/06/21 09:11:41;;;;;;;0.60;0.60;;;;;23.40;98057.00;;;;5095778;28;20198;-73
2022/06/21 09:14:32;;;;;;;0.52;0.52;;;;;23.50;98066.00;;;;5097007;28;20194;-72
2022/06/21 09:17:06;;;;;;;0.45;0.45;;;;;23.40;98070.00;;;;5096968;28;20202;-72
2022/06/21 09:19:47;;;;;;;0.55;0.55;;;;;23.30;98068.00;;;;5096824;28;20210;-74
2022/06/21 09:22:25;;;;;;;0.77;0.77;;;;;23.30;98066.00;;;;5096809;28;20310;-73
2022/06/21 09:25:06;;;;;;;0.43;0.43;;;;;23.50;98067.00;;;;5096735;28;20240;-73
2022/06/21 09:27:38;;;;;;;0.50;0.50;;;;;23.40;98065.00;;;;5096773;28;20185;-73
2022/06/21 09:30:10;;;;;;;0.60;0.60;;;;;23.50;98072.00;;;;5096753;28;20211;-73
2022/06/21 09:32:52;;;;;;;0.80;0.80;;;;;23.60;98060.00;;;;5096960;28;20258;-74
2022/06/21 09:35:28;;;;;;;0.70;0.70;;;;;23.70;98069.00;;;;5100568;28;20199;-75
2022/06/21 09:38:08;;;;;;;0.70;0.70;;;;;23.40;98064.00;;;;5100539;28;20229;-75
2022/06/21 09:40:40;;;;;;;0.60;0.60;;;;;23.70;98068.00;;;;5097815;28;20195;-75
2022/06/21 09:43:19;;;;;;;0.35;0.35;;;;;23.90;98075.00;;;;5096414;28;20232;-75
2022/06/21 09:46:02;;;;;;;0.40;0.40;;;;;24.00;98069.00;;;;5096473;28;20198;-73
2022/06/21 09:48:37;;;;;;;0.70;0.70;;;;;24.10;98056.00;;;;5096504;28;20634;-72
2022/06/21 09:51:14;;;;;;;0.50;0.50;;;;;24.30;98057.00;;;;5096431;28;20222;-74
2022/06/21 09:54:03;;;;;;;1.05;1.05;;;;;24.20;98049.00;;;;5096314;28;20248;-74
2022/06/21 09:56:38;;;;;;;0.50;0.50;;;;;24.10;98061.00;;;;5096356;28;20195;-72
2022/06/21 09:59:12;;;;;;;0.38;0.38;;;;;24.30;98050.00;;;;5096394;28;20179;-74
2022/06/21 10:01:49;;;;;;;1.00;1.00;;;;;24.70;98054.00;;;;5078344;28;20225;-74
2022/06/21 10:04:24;;;;;;;1.17;1.08;;;;;24.80;98048.00;;;;5078322;28;20312;-72
2022/06/21 10:07:04;;;;;;;0.50;0.50;;;;;24.70;98045.00;;;;5096180;28;20278;-74
2022/06/21 10:09:44;;;;;;;0.52;0.52;;;;;24.80;98042.00;;;;5096032;28;20230;-74
2022/06/21 10:12:23;;;;;;;0.68;0.68;;;;;25.00;98038.00;;;;5096140;28;20285;-72
2022/06/21 10:15:03;;;;;;;0.57;0.57;;;;;25.10;98033.00;;;;5096302;28;20171;-73
2022/06/21 10:17:53;;;;;;;0.80;0.80;;;;;25.10;98026.00;;;;5096176;28;20274;-74
2022/06/21 10:20:45;;;;;;;0.65;0.65;;;;;25.00;98028.00;;;;5096042;28;20191;-73
2022/06/21 10:23:28;;;;;;;0.95;0.95;;;;;25.10;98025.00;;;;5094784;28;20286;-73
2022/06/21 10:26:13;;;;;;;0.75;0.75;;;;;25.10;98011.00;;;;5078027;28;20602;-73
2022/06/21 10:29:16;;;;;;;0.50;0.50;;;;;25.30;98015.00;;;;5078065;28;20652;-74
2022/06/21 10:32:04;;;;;;;0.75;0.75;;;;;25.40;98008.00;;;;5096025;28;20205;-72
2022/06/21 10:35:06;;;;;;;0.60;0.60;;;;;25.60;97996.00;;;;5095784;28;20263;-73
2022/06/21 10:37:46;;;;;;;0.95;0.95;;;;;25.70;97994.00;;;;5096160;28;20205;-74
2022/06/21 10:40:42;;;;;;;0.50;0.50;;;;;26.00;97995.00;;;;5095862;28;20198;-73
2022/06/21 10:43:49;;;;;;;1.10;1.10;;;;;25.90;97995.00;;;;5095379;28;20234;-73
2022/06/21 10:46:21;;;;;;;0.60;0.60;;;;;26.10;97987.00;;;;5013816;28;20205;-73
2022/06/21 10:49:35;;;;;;;0.80;0.80;;;;;26.10;97989.00;;;;5056548;28;20647;-70
2022/06/21 10:52:31;;;;;;;0.73;0.73;;;;;26.30;97981.00;;;;5095502;28;20228;-71
2022/06/21 10:55:18;;;;;;;0.93;0.93;;;;;26.20;97966.00;;;;5095304;28;20641;-74
2022/06/21 10:57:59;;;;;;;0.57;0.57;;;;;26.40;97967.00;;;;5095396;28;20645;-75
2022/06/21 11:03:35;;;;;;;0.50;0.50;;;;;26.70;97963.00;;;;5095213;28;20246;-74
2022/06/21 11:06:23;;;;;;;1.15;1.15;;;;;27.00;97960.00;;;;5095676;28;20217;-74
2022/06/21 11:09:01;;;;;;;0.60;0.60;;;;;26.90;97970.00;;;;5095463;28;20222;-73
2022/06/21 11:11:33;;;;;;;0.95;0.95;;;;;26.90;97969.00;;;;5095941;28;20238;-74
2022/06/21 11:14:06;;;;;;;7.88;1.17;;;;;27.10;97979.00;;;;5096276;28;20637;-74
2022/06/21 11:16:43;;;;;;;1.67;0.82;;;;;27.30;97964.00;;;;5094879;28;20214;-74
2022/06/21 11:19:19;;;;;;;0.80;0.80;;;;;27.70;97965.00;;;;5077122;28;20214;-74
2022/06/21 11:22:04;;;;;;;0.90;0.90;;;;;28.10;97962.00;;;;5094870;28;20234;-75
2022/06/21 11:24:44;;;;;;;0.50;0.50;;;;;28.30;97953.00;;;;5094991;28;20171;-73
2022/06/21 11:27:25;;;;;;;0.57;0.57;;;;;28.50;97957.00;;;;5094985;28;20210;-75
2022/06/21 11:30:01;;;;;;;3.33;1.05;;;;;28.50;97961.00;;;;5094906;28;20190;-76
2022/06/21 11:32:36;;;;;;;0.65;0.65;;;;;28.20;97955.00;;;;5094882;28;20622;-76
2022/06/21 11:35:15;;;;;;;3.20;0.80;;;;;28.20;97948.00;;;;5094609;28;20253;-75
2022/06/21 11:37:59;;;;;;;0.63;0.63;;;;;28.20;97940.00;;;;5094656;28;20241;-74
2022/06/21 11:40:44;;;;;;;0.60;0.60;;;;;28.20;97934.00;;;;5094818;28;20376;-75
2022/06/21 11:43:28;;;;;;;1.33;1.23;;;;;28.30;97934.00;;;;5094607;28;20214;-76
2022/06/21 11:46:07;;;;;;;0.68;0.68;;;;;28.20;97928.00;;;;5077089;28;20668;-75
2022/06/21 11:48:52;;;;;;;0.95;0.95;;;;;28.30;97920.00;;;;5094582;28;20201;-74
2022/06/21 11:51:45;;;;;;;0.75;0.75;;;;;28.30;97917.00;;;;5094739;28;20281;-73
2022/06/21 11:54:22;;;;;;;0.68;0.68;;;;;28.30;97927.00;;;;5094514;28;20219;-73
2022/06/21 11:56:59;;;;;;;2.83;1.20;;;;;28.50;97920.00;;;;5094508;28;20213;-73
2022/06/21 11:59:33;;;;;;;1.08;1.08;;;;;28.60;97906.00;;;;5094479;28;20268;-74
2022/06/21 12:02:11;;;;;;;2.22;0.88;;;;;29.00;97901.00;;;;5094302;28;20552;-74
2022/06/21 12:04:44;;;;;;;0.50;0.50;;;;;29.20;97905.00;;;;5094334;28;20297;-74
2022/06/21 12:07:16;;;;;;;0.88;0.88;;;;;29.20;97913.00;;;;5076380;28;20218;-72
2022/06/21 12:09:53;;;;;;;0.50;0.50;;;;;29.40;97918.00;;;;5094254;28;20206;-74
2022/06/21 12:12:41;;;;;;;0.98;0.98;;;;;29.20;97920.00;;;;5094167;28;20213;-71
2022/06/21 12:15:33;;;;;;;0.60;0.60;;;;;29.00;97916.00;;;;5094183;28;20263;-74
2022/06/21 12:18:05;;;;;;;0.88;0.88;;;;;28.80;97927.00;;;;5094070;28;20251;-72
2022/06/21 12:20:37;;;;;;;0.50;0.50;;;;;28.70;97918.00;;;;5094010;28;20222;-72
2022/06/21 12:23:18;;;;;;;0.63;0.63;;;;;28.70;97907.00;;;;5093921;28;20296;-73
2022/06/21 12:25:45;;;;;;;0.70;0.70;;;;;28.50;97907.00;;;;5093954;28;20233;-74
2022/06/21 12:28:15;;;;;;;0.75;0.73;;;;;29.00;97901.00;;;;5076416;28;20548;-76
2022/06/21 12:30:42;;;;;;;0.90;0.90;;;;;29.30;97877.00;;;;5093999;28;20194;-75
2022/06/21 12:33:13;;;;;;;2.22;1.58;;;;;29.70;97872.00;;;;5093745;28;20301;-73
2022/06/21 12:35:47;;;;;;;0.70;0.70;;;;;29.90;97861.00;;;;5093993;28;20191;-73
2022/06/21 12:38:20;;;;;;;2.08;1.83;;;;;30.10;97858.00;;;;5093856;28;20198;-74
2022/06/21 12:40:57;;;;;;;1.00;1.00;;;;;30.40;97867.00;;;;5093782;28;20198;-72
2022/06/21 12:43:41;;;;;;;0.70;0.70;;;;;31.10;97868.00;;;;5093686;28;20208;-74
2022/06/21 12:46:18;;;;;;;1.27;1.27;;;;;31.40;97857.00;;;;5093025;28;20703;-73
2022/06/21 12:49:23;;;;;;;1.23;1.20;;;;;31.70;97844.00;;;;5093848;28;20209;-75
2022/06/21 12:51:56;;;;;;;1.23;1.13;;;;;32.00;97836.00;;;;5075824;28;20222;-76
2022/06/21 12:54:52;;;;;;;0.73;0.73;;;;;32.20;97803.00;;;;5093645;28;20191;-74